Time;durP1;ratioP1;P1;durP2;ratioP2;P2;SDS_P1;SDS_P2;PMS_P1;PMS_P2;Temp;Humidity;BMP_temperature;BMP_pressure;BME280_temperature;BME280_humidity;BME280_pressure;Samples;Min_cycle;Max_cycle;Signal;HPM_P1;HPM_P2
2023/07/19 00:02:16;;;;;;;16.40;4.30;;;;;;;21.48;49.00;98747.06;68001;1275;1016630;-68
2023/07/19 00:05:19;;;;;;;15.60;4.40;;;;;;;21.49;48.83;98753.02;67947;1275;1016048;-67
2023/07/19 00:08:22;;;;;;;15.60;4.10;;;;;;;21.49;48.99;98746.21;68014;1275;1018867;-65
2023/07/19 00:11:25;;;;;;;14.10;3.40;;;;;;;21.45;49.01;98746.85;67991;1275;1016171;-69
2023/07/19 00:14:28;;;;;;;13.10;3.90;;;;;;;21.56;48.97;98739.07;68001;1275;1016453;-70
2023/07/19 00:17:41;;;;;;;15.80;4.30;;;;;;;21.63;48.69;98740.02;67972;1275;1016474;-66
2023/07/19 00:20:43;;;;;;;13.00;4.10;;;;;;;21.51;48.73;98730.02;68013;1275;1016326;-62
2023/07/19 00:23:47;;;;;;;13.10;3.70;;;;;;;21.37;48.84;98733.10;68019;1275;1016958;-68
2023/07/19 00:26:50;;;;;;;11.20;3.50;;;;;;;21.28;49.05;98724.17;67997;1275;1016246;-68
2023/07/19 00:29:54;;;;;;;14.10;4.10;;;;;;;21.13;49.28;98720.93;68016;1275;1016433;-65
2023/07/19 00:32:57;;;;;;;16.10;4.30;;;;;;;21.27;49.21;98716.08;67875;1277;1016396;-69
2023/07/19 00:36:00;;;;;;;13.00;4.20;;;;;;;21.32;49.27;98714.65;67880;1277;1016813;-67
2023/07/19 00:39:03;;;;;;;;;;;;;;;21.40;49.32;98708.22;67846;1277;1016428;-66
2023/07/19 00:42:06;;;;;;;16.70;4.20;;;;;;;21.12;49.84;98705.38;67895;1277;1019076;-63
2023/07/19 00:45:09;;;;;;;14.70;4.00;;;;;;;20.73;50.72;98704.20;67840;1277;1016206;-66
2023/07/19 00:48:12;;;;;;;15.30;4.00;;;;;;;20.59;51.05;98701.30;67868;1277;1016428;-65
2023/07/19 00:51:15;;;;;;;15.40;4.30;;;;;;;20.63;50.67;98690.99;67806;1277;1016511;-71
2023/07/19 00:54:17;;;;;;;16.40;4.80;;;;;;;20.72;50.43;98681.00;67834;1277;1016355;-63
2023/07/19 00:57:21;;;;;;;15.60;4.30;;;;;;;20.77;50.58;98673.72;67868;1277;1016907;-68
2023/07/19 01:00:23;;;;;;;15.90;4.10;;;;;;;20.58;50.83;98668.76;67887;1277;1016658;-69
2023/07/19 01:03:26;;;;;;;13.90;4.30;;;;;;;20.56;51.37;98660.95;67794;1277;1016313;-70
2023/07/19 01:06:29;;;;;;;16.00;4.70;;;;;;;20.42;51.05;98655.12;67838;1277;1019053;-64
2023/07/19 01:09:32;;;;;;;16.50;4.50;;;;;;;20.44;50.95;98658.35;67830;1277;1016087;-69
2023/07/19 01:12:35;;;;;;;15.30;4.40;;;;;;;20.74;50.51;98648.40;67825;1277;1016096;-70
2023/07/19 01:15:40;;;;;;;14.00;4.30;;;;;;;20.45;51.12;98648.48;67861;1277;1016506;-71
2023/07/19 01:18:43;;;;;;;14.70;4.10;;;;;;;20.15;51.90;98654.42;67840;1277;1016458;-69
2023/07/19 01:21:47;;;;;;;14.00;3.80;;;;;;;20.25;51.35;98651.25;67879;1277;1016688;-69
2023/07/19 01:24:49;;;;;;;17.50;4.40;;;;;;;20.23;51.20;98645.45;67890;1277;1016493;-70
2023/07/19 01:27:52;;;;;;;14.40;4.10;;;;;;;20.19;51.13;98643.72;67877;1277;1016421;-67
2023/07/19 01:30:55;;;;;;;15.50;4.50;;;;;;;20.00;51.95;98646.70;67915;1275;1015946;-67
2023/07/19 01:33:58;;;;;;;14.20;4.10;;;;;;;20.06;51.84;98641.27;68020;1275;1018848;-68
2023/07/19 01:37:01;;;;;;;14.70;3.80;;;;;;;20.03;51.89;98636.50;67939;1275;1018044;-66
2023/07/19 01:40:04;;;;;;;15.90;4.50;;;;;;;20.13;51.78;98633.09;68012;1275;1017122;-67
2023/07/19 01:43:08;;;;;;;13.70;3.90;;;;;;;20.28;51.83;98629.81;67996;1275;1016328;-67
2023/07/19 01:46:10;;;;;;;16.10;4.60;;;;;;;20.32;51.59;98629.73;68038;1275;1016357;-68
2023/07/19 01:49:13;;;;;;;16.30;4.40;;;;;;;20.26;51.54;98630.89;67972;1275;1016305;-67
2023/07/19 01:52:16;;;;;;;17.00;4.20;;;;;;;19.77;53.03;98627.23;68001;1275;1016390;-69
2023/07/19 01:55:19;;;;;;;13.80;4.00;;;;;;;19.65;53.31;98623.84;68018;1275;1016464;-69
2023/07/19 01:58:24;;;;;;;18.20;4.40;;;;;;;19.51;53.61;98623.95;67981;1276;1016856;-69
2023/07/19 02:01:27;;;;;;;16.80;4.80;;;;;;;19.45;53.64;98632.61;67969;1275;1016235;-67
2023/07/19 02:04:30;;;;;;;16.30;4.30;;;;;;;19.43;53.54;98627.13;68045;1275;1016418;-68
2023/07/19 02:07:34;;;;;;;17.00;4.40;;;;;;;19.56;52.92;98623.34;67986;1275;1016196;-70
2023/07/19 02:10:37;;;;;;;14.60;4.00;;;;;;;19.52;52.84;98627.54;67979;1275;1015927;-69
2023/07/19 02:13:40;;;;;;;14.70;4.40;;;;;;;19.73;52.40;98625.16;67981;1276;1016704;-64
2023/07/19 02:16:44;;;;;;;15.10;4.10;;;;;;;19.55;53.11;98628.86;68008;1275;1016073;-69
2023/07/19 02:19:47;;;;;;;15.50;4.30;;;;;;;19.41;53.37;98627.66;68034;1275;1016314;-72
2023/07/19 02:22:52;;;;;;;13.40;3.90;;;;;;;19.46;53.27;98626.11;68014;1275;1016535;-71
2023/07/19 02:25:55;;;;;;;14.60;4.10;;;;;;;19.30;53.18;98620.80;68045;1275;1016122;-70
2023/07/19 02:28:59;;;;;;;16.30;4.00;;;;;;;19.44;53.60;98624.86;67998;1276;1016204;-70
2023/07/19 02:32:03;;;;;;;14.00;4.00;;;;;;;19.45;53.57;98624.06;68027;1276;1017847;-65
2023/07/19 02:35:06;;;;;;;14.10;4.20;;;;;;;19.46;53.73;98627.81;67981;1275;1016438;-65
2023/07/19 02:38:09;;;;;;;14.00;4.20;;;;;;;19.52;53.53;98637.86;68029;1275;1016345;-65
2023/07/19 02:41:13;;;;;;;17.40;3.90;;;;;;;19.59;53.69;98645.48;68022;1275;1016046;-69
2023/07/19 02:44:16;;;;;;;17.60;4.40;;;;;;;19.76;53.50;98647.94;67948;1275;1016217;-69
2023/07/19 02:47:20;;;;;;;14.60;3.90;;;;;;;19.88;53.41;98645.39;68008;1275;1016505;-69
2023/07/19 02:50:23;;;;;;;15.30;4.10;;;;;;;20.24;52.65;98642.05;68018;1275;1016071;-67
2023/07/19 02:53:26;;;;;;;14.40;4.20;;;;;;;20.30;52.60;98642.38;67984;1275;1015958;-64
2023/07/19 02:56:30;;;;;;;14.30;4.40;;;;;;;20.30;52.82;98648.40;67963;1274;1016431;-68
2023/07/19 02:59:33;;;;;;;15.80;4.20;;;;;;;20.30;52.93;98648.93;68011;1274;1016169;-64
2023/07/19 03:02:37;;;;;;;14.30;4.30;;;;;;;20.21;53.19;98651.98;67975;1275;1016417;-66
2023/07/19 03:05:42;;;;;;;16.20;4.40;;;;;;;20.39;52.83;98654.92;67975;1274;1016452;-66
2023/07/19 03:08:45;;;;;;;15.90;4.10;;;;;;;20.41;52.83;98654.83;67994;1274;1018621;-64
2023/07/19 03:11:48;;;;;;;16.90;4.50;;;;;;;20.35;53.12;98647.02;68033;1274;1015893;-67
2023/07/19 03:14:51;;;;;;;16.70;4.50;;;;;;;20.20;53.89;98643.59;68011;1274;1016790;-67
2023/07/19 03:17:55;;;;;;;12.50;3.60;;;;;;;20.21;54.16;98647.36;67951;1275;1016370;-63
2023/07/19 03:20:59;;;;;;;13.90;3.70;;;;;;;19.99;55.23;98658.02;67980;1275;1016351;-67
2023/07/19 03:24:03;;;;;;;14.40;4.20;;;;;;;20.12;55.10;98653.04;67954;1274;1016802;-63
2023/07/19 03:27:05;;;;;;;15.00;4.40;;;;;;;20.35;54.43;98648.55;68043;1274;1017202;-68
2023/07/19 03:30:09;;;;;;;15.90;4.10;;;;;;;20.36;54.95;98649.15;68015;1274;1017978;-66
2023/07/19 03:33:12;;;;;;;19.10;4.40;;;;;;;20.80;54.63;98638.55;67996;1274;1016475;-70
2023/07/19 03:36:16;;;;;;;15.10;4.30;;;;;;;20.97;54.14;98631.45;68019;1274;1018785;-70
2023/07/19 03:39:20;;;;;;;13.60;4.00;;;;;;;21.02;54.07;98629.63;68024;1274;1016480;-71
2023/07/19 03:42:22;;;;;;;16.00;4.10;;;;;;;21.04;54.06;98626.09;68006;1274;1016205;-70
2023/07/19 03:45:28;;;;;;;;;;;;;;;21.11;53.66;98624.02;68021;1274;1016246;-69
2023/07/19 03:48:31;;;;;;;12.20;3.80;;;;;;;21.07;53.59;98623.23;67991;1275;1016054;-70
2023/07/19 03:51:33;;;;;;;12.00;3.60;;;;;;;21.09;53.12;98619.42;68030;1274;1016291;-68
2023/07/19 03:54:36;;;;;;;;;;;;;;;21.07;53.18;98620.73;67913;1274;1017525;-67
2023/07/19 03:57:39;;;;;;;12.80;4.00;;;;;;;21.12;53.16;98619.47;67896;1274;1016385;-70
2023/07/19 04:00:43;;;;;;;15.40;4.20;;;;;;;21.27;53.08;98613.45;68113;1274;1016563;-67
2023/07/19 04:03:46;;;;;;;15.10;4.10;;;;;;;21.29;53.36;98612.53;68636;1275;1015446;-66
2023/07/19 04:06:50;;;;;;;11.10;3.70;;;;;;;21.29;53.94;98602.59;68657;1274;1015984;-66
2023/07/19 04:09:52;;;;;;;;;;;;;;;21.82;53.25;98605.30;68364;1274;1016367;-65
2023/07/19 04:12:55;;;;;;;15.40;4.00;;;;;;;22.15;52.49;98610.70;67892;1274;1017745;-71
2023/07/19 04:16:02;;;;;;;13.20;4.00;;;;;;;22.34;52.25;98609.39;67890;1274;1016164;-67
2023/07/19 04:19:05;;;;;;;13.00;3.80;;;;;;;22.58;52.50;98606.23;67937;1274;1016726;-71
2023/07/19 04:22:09;;;;;;;16.40;4.20;;;;;;;22.81;52.41;98601.29;68007;1275;1016103;-71
2023/07/19 04:25:27;;;;;;;12.20;3.90;;;;;;;23.03;52.19;98599.09;67979;1274;1016398;-72
2023/07/19 04:28:30;;;;;;;11.80;4.00;;;;;;;22.72;53.38;98596.11;67987;1274;1016217;-73
2023/07/19 04:31:33;;;;;;;;;;;;;;;23.09;52.88;98585.95;68024;1274;1018458;-72
2023/07/19 04:34:37;;;;;;;14.70;3.90;;;;;;;23.44;52.58;98586.89;68006;1274;1016423;-72
2023/07/19 04:37:40;;;;;;;14.30;4.60;;;;;;;23.72;52.52;98587.80;67946;1274;1017087;-71
2023/07/19 04:40:43;;;;;;;15.50;4.20;;;;;;;23.90;52.49;98584.84;67921;1274;1016186;-71
2023/07/19 04:43:46;;;;;;;15.90;4.60;;;;;;;24.22;52.01;98582.22;67995;1274;1016751;-70
2023/07/19 04:46:49;;;;;;;17.20;5.20;;;;;;;24.37;52.04;98583.89;68018;1274;1016433;-71
2023/07/19 04:49:53;;;;;;;18.20;4.70;;;;;;;24.59;51.77;98584.89;68011;1274;1016770;-73
2023/07/19 04:52:56;;;;;;;17.20;5.10;;;;;;;24.74;51.86;98583.92;67970;1274;1018825;-72
2023/07/19 04:55:58;;;;;;;16.30;4.80;;;;;;;25.35;50.75;98589.23;68023;1274;1016165;-73
2023/07/19 04:59:02;;;;;;;17.70;5.00;;;;;;;25.59;50.15;98585.33;67993;1274;1016283;-73
2023/07/19 05:02:05;;;;;;;14.00;4.40;;;;;;;25.73;50.59;98588.99;67988;1274;1016409;-72
2023/07/19 05:05:08;;;;;;;13.60;4.30;;;;;;;25.99;50.09;98586.41;67969;1275;1016388;-71
2023/07/19 05:08:10;;;;;;;12.90;4.10;;;;;;;26.10;50.10;98592.85;68033;1275;1019305;-69
2023/07/19 05:11:14;;;;;;;16.80;4.50;;;;;;;26.45;49.78;98598.20;67925;1274;1016408;-71
2023/07/19 05:14:17;;;;;;;16.50;4.50;;;;;;;26.73;49.39;98592.36;68009;1274;1016448;-74
2023/07/19 05:17:20;;;;;;;13.20;4.30;;;;;;;26.55;50.54;98591.40;67964;1274;1016582;-73
2023/07/19 05:20:23;;;;;;;16.10;4.40;;;;;;;26.69;50.30;98590.79;67998;1274;1016427;-74
2023/07/19 05:23:26;;;;;;;17.20;4.40;;;;;;;26.97;49.29;98594.11;67964;1274;1016339;-65
2023/07/19 05:26:30;;;;;;;14.80;4.30;;;;;;;27.07;48.58;98595.49;68014;1274;1016444;-73
2023/07/19 05:29:32;;;;;;;17.50;4.60;;;;;;;27.30;48.57;98594.73;67961;1274;1015748;-75
2023/07/19 05:32:35;;;;;;;13.30;3.70;;;;;;;27.57;47.95;98592.73;67975;1274;1016070;-72
2023/07/19 05:35:38;;;;;;;18.80;4.60;;;;;;;27.86;46.89;98594.70;67997;1274;1016285;-73
2023/07/19 05:38:42;;;;;;;16.60;4.10;;;;;;;28.14;47.21;98594.52;67981;1274;1016346;-73
2023/07/19 05:41:44;;;;;;;15.60;3.90;;;;;;;28.49;47.36;98585.61;68050;1274;1016263;-65
2023/07/19 05:44:48;;;;;;;18.30;4.40;;;;;;;28.95;47.30;98586.77;67972;1274;1016361;-63
2023/07/19 05:47:51;;;;;;;16.20;4.30;;;;;;;29.17;46.07;98583.48;67949;1274;1016457;-69
2023/07/19 05:50:54;;;;;;;21.30;4.20;;;;;;;29.38;45.24;98583.96;67798;1274;1016429;-63
2023/07/19 05:54:04;;;;;;;16.30;3.80;;;;;;;29.27;45.17;98576.16;68026;1274;1016417;-71
2023/07/19 05:57:07;;;;;;;15.50;4.80;;;;;;;29.18;44.99;98575.34;67994;1274;1016028;-70
2023/07/19 06:00:14;;;;;;;14.30;4.20;;;;;;;29.38;45.27;98572.41;67922;1251;1015996;-63
2023/07/19 06:03:17;;;;;;;11.60;3.70;;;;;;;29.64;44.79;98571.91;68022;1274;1016361;-73
2023/07/19 06:06:20;;;;;;;15.50;4.00;;;;;;;29.77;44.22;98573.03;67913;1274;1018680;-65
2023/07/19 06:09:23;;;;;;;12.80;3.80;;;;;;;30.21;43.76;98571.66;67905;1274;1017255;-72
2023/07/19 06:12:27;;;;;;;13.40;4.00;;;;;;;30.68;42.79;98567.70;67939;1274;1016885;-73
2023/07/19 06:15:31;;;;;;;11.30;3.70;;;;;;;30.75;42.31;98564.31;67995;1274;1016333;-74
2023/07/19 06:18:35;;;;;;;13.00;3.60;;;;;;;30.76;42.47;98565.70;67948;1274;1016195;-71
2023/07/19 06:21:37;;;;;;;12.20;3.50;;;;;;;30.99;41.95;98560.15;68012;1274;1016166;-73
2023/07/19 06:24:41;;;;;;;15.90;3.60;;;;;;;31.31;41.37;98556.01;67970;1274;1016241;-64
2023/07/19 06:27:43;;;;;;;15.40;3.30;;;;;;;31.47;39.90;98548.23;68008;1274;1016797;-73
2023/07/19 06:30:46;;;;;;;15.80;3.30;;;;;;;31.55;40.15;98550.39;67960;1274;1015850;-73
2023/07/19 06:33:49;;;;;;;13.30;3.50;;;;;;;32.00;39.74;98547.72;68031;1274;1016463;-75
2023/07/19 06:36:53;;;;;;;15.40;3.50;;;;;;;32.30;38.39;98545.50;67809;1274;1016400;-67
2023/07/19 06:39:56;;;;;;;15.00;3.70;;;;;;;32.55;38.41;98546.95;67986;1274;1016174;-72
2023/07/19 06:42:59;;;;;;;15.60;3.70;;;;;;;32.47;38.56;98541.21;68046;1274;1016397;-72
2023/07/19 06:46:02;;;;;;;12.40;3.40;;;;;;;32.78;38.72;98543.93;67975;1274;1016501;-73
2023/07/19 06:49:05;;;;;;;12.10;3.30;;;;;;;33.11;37.72;98542.38;67908;1274;1016423;-68
2023/07/19 06:52:07;;;;;;;13.90;3.40;;;;;;;33.17;36.63;98536.45;68012;1274;1016179;-64
2023/07/19 06:55:10;;;;;;;14.60;4.00;;;;;;;33.32;37.00;98537.62;68031;1274;1016509;-74
2023/07/19 06:58:13;;;;;;;14.90;3.40;;;;;;;33.68;36.63;98531.66;67979;1274;1016717;-63
2023/07/19 07:01:16;;;;;;;12.30;3.60;;;;;;;33.91;35.93;98530.49;68005;1274;1018578;-65
2023/07/19 07:04:19;;;;;;;14.50;3.90;;;;;;;34.25;35.91;98531.11;67992;1274;1016544;-68
2023/07/19 07:07:21;;;;;;;12.00;3.40;;;;;;;34.43;35.60;98533.44;67895;1274;1016316;-74
2023/07/19 07:10:24;;;;;;;12.80;3.40;;;;;;;34.32;35.86;98534.74;68012;1274;1018623;-74
2023/07/19 07:13:26;;;;;;;11.70;3.30;;;;;;;34.64;35.11;98534.07;68016;1274;1016481;-73
2023/07/19 07:16:29;;;;;;;12.00;3.50;;;;;;;34.83;34.97;98536.23;68009;1274;1018719;-74
2023/07/19 07:19:32;;;;;;;14.90;3.60;;;;;;;35.14;34.43;98534.52;68039;1274;1016422;-74
2023/07/19 07:22:35;;;;;;;13.60;3.60;;;;;;;35.38;33.06;98527.40;67994;1274;1016942;-70
2023/07/19 07:25:38;;;;;;;14.30;3.90;;;;;;;35.19;32.48;98524.91;68021;1274;1016498;-74
2023/07/19 07:28:40;;;;;;;12.50;3.40;;;;;;;35.36;32.59;98520.23;68049;1274;1016441;-73
2023/07/19 07:31:44;;;;;;;15.40;4.30;;;;;;;35.33;33.42;98521.52;68003;1274;1016342;-74
2023/07/19 07:34:46;;;;;;;15.50;4.00;;;;;;;35.79;32.33;98513.00;68005;1274;1016469;-73
2023/07/19 07:37:49;;;;;;;13.10;3.50;;;;;;;36.03;32.48;98509.88;67981;1274;1016156;-73
2023/07/19 07:40:51;;;;;;;9.90;3.40;;;;;;;35.93;31.42;98501.71;67999;1274;1016919;-69
2023/07/19 07:43:54;;;;;;;13.40;3.40;;;;;;;35.36;30.79;98508.41;68001;1274;1016091;-62
2023/07/19 07:46:56;;;;;;;12.40;3.30;;;;;;;35.44;30.82;98504.10;68005;1275;1018391;-64
2023/07/19 07:50:02;;;;;;;11.60;3.30;;;;;;;35.35;31.50;98501.41;67968;1274;1016323;-63
2023/07/19 07:53:06;;;;;;;10.30;3.00;;;;;;;35.32;30.83;98500.36;67941;1274;1016886;-61
2023/07/19 07:56:08;;;;;;;12.20;3.20;;;;;;;35.69;30.82;98501.06;68036;1275;1016680;-63
2023/07/19 07:59:10;;;;;;;9.70;2.90;;;;;;;36.38;30.48;98501.29;68013;1274;1016689;-64
2023/07/19 08:02:13;;;;;;;9.10;2.90;;;;;;;36.77;30.20;98496.21;67965;1274;1016589;-62
2023/07/19 08:05:16;;;;;;;11.10;2.70;;;;;;;36.94;29.02;98487.53;67984;1274;1016597;-67
2023/07/19 08:08:18;;;;;;;11.50;3.20;;;;;;;36.88;29.07;98489.05;68002;1274;1016120;-71
2023/07/19 08:11:21;;;;;;;7.50;2.50;;;;;;;37.07;29.16;98479.31;67982;1274;1016137;-69
2023/07/19 08:14:23;;;;;;;13.50;2.90;;;;;;;37.05;29.11;98478.66;67981;1274;1016226;-70
2023/07/19 08:17:26;;;;;;;14.10;3.50;;;;;;;37.10;28.37;98476.52;68004;1274;1015804;-65
2023/07/19 08:20:29;;;;;;;7.30;2.40;;;;;;;37.09;27.82;98473.45;67951;1274;1016402;-62
2023/07/19 08:23:31;;;;;;;22.10;4.00;;;;;;;37.22;27.78;98470.87;67968;1274;1016148;-62
2023/07/19 08:26:34;;;;;;;15.30;3.40;;;;;;;37.02;26.45;98469.20;67977;1274;1016319;-62
2023/07/19 08:29:36;;;;;;;27.00;3.90;;;;;;;37.14;27.35;98470.34;67959;1274;1016173;-63
2023/07/19 08:32:38;;;;;;;11.10;2.70;;;;;;;37.37;26.90;98470.02;68005;1274;1015957;-62
2023/07/19 08:35:42;;;;;;;14.00;3.10;;;;;;;37.59;26.61;98471.15;68033;1274;1016295;-69
2023/07/19 08:38:45;;;;;;;11.80;2.90;;;;;;;37.77;26.64;98469.13;67980;1274;1016460;-63
2023/07/19 08:41:47;;;;;;;11.40;3.50;;;;;;;37.91;26.75;98465.77;68018;1274;1016612;-61
2023/07/19 08:44:49;;;;;;;10.50;2.90;;;;;;;38.06;26.50;98465.08;67978;1274;1016521;-61
2023/07/19 08:47:52;;;;;;;12.50;3.00;;;;;;;38.27;25.91;98461.52;67970;1274;1016969;-72
2023/07/19 08:50:54;;;;;;;10.60;2.90;;;;;;;38.46;25.70;98463.63;68025;1274;1016335;-60
2023/07/19 08:53:56;;;;;;;13.30;3.20;;;;;;;38.61;25.14;98455.36;67970;1274;1016437;-62
2023/07/19 08:56:59;;;;;;;11.80;3.40;;;;;;;38.43;26.31;98451.11;67925;1274;1018538;-70
2023/07/19 09:00:01;;;;;;;7.40;2.80;;;;;;;38.69;25.03;98447.24;68026;1274;1018959;-71
2023/07/19 09:03:04;;;;;;;9.90;2.80;;;;;;;38.53;25.24;98440.26;67982;1274;1017939;-68
2023/07/19 09:06:07;;;;;;;11.00;2.80;;;;;;;38.89;25.74;98432.15;67980;1274;1016094;-63
2023/07/19 09:09:10;;;;;;;7.40;2.80;;;;;;;38.85;25.34;98429.30;67958;1274;1016656;-60
2023/07/19 09:12:15;;;;;;;14.80;3.10;;;;;;;38.86;25.69;98425.23;68015;1275;1016435;-61
2023/07/19 09:15:18;;;;;;;10.80;3.00;;;;;;;38.98;25.77;98419.73;67964;1275;1016409;-61
2023/07/19 09:18:20;;;;;;;11.70;3.00;;;;;;;38.97;25.93;98413.89;68053;1275;1016378;-59
2023/07/19 09:21:23;;;;;;;12.50;3.40;;;;;;;38.97;25.66;98418.11;67976;1275;1016273;-63
2023/07/19 09:24:25;;;;;;;8.60;2.80;;;;;;;39.25;25.61;98419.13;68001;1275;1016505;-68
2023/07/19 09:27:28;;;;;;;10.00;3.10;;;;;;;39.59;24.66;98415.55;68034;1275;1016493;-67
2023/07/19 09:30:30;;;;;;;10.30;3.20;;;;;;;39.76;24.96;98411.48;67988;1275;1018769;-60
2023/07/19 09:33:33;;;;;;;12.00;3.10;;;;;;;40.08;25.02;98408.56;67961;1275;1016259;-67
2023/07/19 09:36:36;;;;;;;7.20;2.80;;;;;;;40.20;25.40;98407.99;67954;1254;1016819;-67
2023/07/19 09:39:38;;;;;;;10.90;3.30;;;;;;;40.06;24.85;98405.14;68031;1253;1016428;-60
2023/07/19 09:42:42;;;;;;;10.70;2.90;;;;;;;40.42;24.04;98407.31;67970;1275;1016493;-67
2023/07/19 09:45:45;;;;;;;8.20;3.00;;;;;;;40.25;23.68;98406.38;68007;1275;1016099;-68
2023/07/19 09:48:47;;;;;;;8.50;2.80;;;;;;;40.28;24.25;98403.91;68041;1275;1016525;-63
2023/07/19 09:51:50;;;;;;;8.30;3.10;;;;;;;40.67;24.17;98402.56;68030;1275;1016508;-59
2023/07/19 09:54:52;;;;;;;9.30;2.90;;;;;;;40.77;23.02;98398.64;68015;1275;1015930;-68
2023/07/19 09:57:55;;;;;;;12.10;3.10;;;;;;;40.33;22.32;98395.66;67984;1275;1016390;-68
2023/07/19 10:00:57;;;;;;;14.20;3.40;;;;;;;39.76;22.73;98389.09;67967;1274;1019157;-66
2023/07/19 10:04:00;;;;;;;11.30;3.20;;;;;;;38.91;22.12;98396.55;67969;1274;1016017;-68
2023/07/19 10:07:02;;;;;;;13.00;3.10;;;;;;;37.99;22.62;98390.95;67988;1274;1016452;-67
2023/07/19 10:10:04;;;;;;;9.50;3.20;;;;;;;36.91;22.72;98390.84;67981;1274;1016170;-63
2023/07/19 10:13:07;;;;;;;10.80;3.10;;;;;;;36.36;23.60;98387.30;67899;1274;1016721;-67
2023/07/19 10:16:09;;;;;;;9.80;3.10;;;;;;;36.33;24.00;98379.41;67970;1274;1016826;-63
2023/07/19 10:19:12;;;;;;;9.30;2.80;;;;;;;36.59;23.94;98372.91;68039;1274;1017025;-60
2023/07/19 10:22:14;;;;;;;14.20;3.20;;;;;;;37.22;24.76;98364.08;68018;1274;1018188;-61
2023/07/19 10:25:17;;;;;;;10.60;3.10;;;;;;;37.63;23.73;98363.91;67952;1274;1016453;-62
2023/07/19 10:28:19;;;;;;;11.80;3.10;;;;;;;37.68;22.99;98359.20;67963;1274;1016410;-62
2023/07/19 10:31:21;;;;;;;12.30;3.20;;;;;;;37.41;22.67;98351.06;67936;1274;1017923;-65
2023/07/19 10:34:24;;;;;;;10.80;3.20;;;;;;;36.56;23.06;98352.88;67873;1275;1016065;-62
2023/07/19 10:37:26;;;;;;;11.10;3.20;;;;;;;36.33;23.98;98350.86;67903;1274;1016299;-64
2023/07/19 10:40:29;;;;;;;11.80;3.40;;;;;;;36.69;23.42;98345.91;67866;1274;1016513;-63
2023/07/19 10:43:31;;;;;;;11.10;3.10;;;;;;;36.51;23.49;98347.86;67822;1274;1019238;-62
2023/07/19 10:46:34;;;;;;;12.30;3.30;;;;;;;36.09;23.58;98349.77;67936;1274;1017135;-66
2023/07/19 10:49:36;;;;;;;11.20;3.20;;;;;;;35.96;23.99;98347.35;67948;1274;1016175;-65
2023/07/19 10:52:39;;;;;;;10.10;3.20;;;;;;;35.91;24.48;98343.09;67951;1274;1016541;-63
2023/07/19 10:55:42;;;;;;;12.90;3.30;;;;;;;36.06;25.82;98339.11;67892;1274;1016532;-62
2023/07/19 10:58:45;;;;;;;9.90;3.20;;;;;;;36.95;25.22;98335.86;67991;1274;1017712;-62
2023/07/19 11:01:48;;;;;;;10.90;3.20;;;;;;;37.26;24.13;98334.55;67991;1274;1016068;-66
2023/07/19 11:04:50;;;;;;;9.60;3.10;;;;;;;37.00;23.30;98331.81;67992;1274;1016235;-62
2023/07/19 11:07:53;;;;;;;13.20;3.30;;;;;;;36.64;23.62;98329.59;68013;1274;1016476;-62
2023/07/19 11:10:56;;;;;;;10.50;2.90;;;;;;;36.52;24.20;98329.08;67974;1274;1016256;-63
2023/07/19 11:13:59;;;;;;;12.80;3.60;;;;;;;36.11;23.68;98331.81;67983;1274;1016490;-63
2023/07/19 11:17:01;;;;;;;14.10;3.10;;;;;;;35.66;24.02;98327.36;67984;1274;1016383;-62
2023/07/19 11:20:03;;;;;;;11.10;3.10;;;;;;;35.64;24.04;98324.00;68010;1274;1016380;-63
2023/07/19 11:23:07;;;;;;;9.50;3.20;;;;;;;35.85;24.54;98321.65;67898;1274;1015543;-63
2023/07/19 11:26:10;;;;;;;12.10;3.30;;;;;;;36.21;25.19;98315.31;67957;1274;1016215;-62
2023/07/19 11:29:13;;;;;;;8.90;3.10;;;;;;;36.98;25.25;98311.49;68045;1274;1016461;-62
2023/07/19 11:32:16;;;;;;;11.70;3.10;;;;;;;37.72;25.75;98312.21;67973;1274;1016301;-62
2023/07/19 11:35:19;;;;;;;11.10;3.40;;;;;;;38.70;25.54;98303.48;67997;1274;1016614;-62
2023/07/19 11:38:21;;;;;;;10.00;2.80;;;;;;;39.57;24.38;98298.95;67968;1274;1016905;-63
2023/07/19 11:41:23;;;;;;;11.30;3.40;;;;;;;39.87;23.81;98292.86;68020;1274;1016787;-62
2023/07/19 11:44:26;;;;;;;11.30;3.10;;;;;;;39.81;23.50;98283.63;67975;1274;1019616;-62
2023/07/19 11:47:28;;;;;;;10.00;3.30;;;;;;;39.43;23.06;98281.51;67940;1274;1016330;-63
2023/07/19 11:50:31;;;;;;;12.70;3.10;;;;;;;38.26;22.36;98293.16;68002;1274;1016266;-62
2023/07/19 11:53:33;;;;;;;11.00;3.00;;;;;;;37.30;22.95;98290.84;67934;1274;1016432;-65
2023/07/19 11:56:36;;;;;;;9.70;3.00;;;;;;;36.27;23.89;98290.71;67943;1274;1015981;-63
2023/07/19 11:59:39;;;;;;;10.00;3.40;;;;;;;36.35;24.81;98286.44;67995;1274;1016390;-62
2023/07/19 12:02:41;;;;;;;13.20;3.10;;;;;;;36.31;23.62;98287.66;68009;1274;1016698;-63
2023/07/19 12:05:44;;;;;;;8.80;3.00;;;;;;;36.27;23.54;98281.27;67969;1274;1016192;-63
2023/07/19 12:08:47;;;;;;;11.70;3.30;;;;;;;36.51;24.92;98273.53;67903;1274;1016170;-62
2023/07/19 12:11:49;;;;;;;13.50;3.20;;;;;;;36.81;23.90;98269.25;68014;1274;1016243;-62
2023/07/19 12:14:52;;;;;;;9.70;3.10;;;;;;;37.38;24.57;98270.61;67909;1274;1016632;-63
2023/07/19 12:17:54;;;;;;;12.00;3.40;;;;;;;38.04;24.27;98266.29;67976;1274;1018825;-62
2023/07/19 12:20:57;;;;;;;9.50;3.20;;;;;;;38.25;24.04;98263.36;68021;1274;1016506;-63
2023/07/19 12:23:59;;;;;;;11.10;3.00;;;;;;;38.34;23.65;98260.98;67999;1274;1016445;-64
2023/07/19 12:27:02;;;;;;;10.10;3.10;;;;;;;38.05;23.03;98263.10;68015;1274;1016307;-63
2023/07/19 12:30:04;;;;;;;11.80;3.40;;;;;;;37.98;23.40;98262.17;67965;1274;1016409;-65
2023/07/19 12:33:07;;;;;;;9.80;2.90;;;;;;;37.84;23.60;98263.50;68041;1274;1016573;-66
2023/07/19 12:36:10;;;;;;;11.40;3.10;;;;;;;37.31;23.49;98256.61;68042;1274;1017376;-63
2023/07/19 12:39:12;;;;;;;9.00;3.20;;;;;;;37.04;24.23;98252.93;67986;1274;1016255;-65
2023/07/19 12:42:17;;;;;;;9.50;3.20;;;;;;;36.65;23.61;98252.09;67980;1274;1016023;-63
2023/07/19 12:45:19;;;;;;;9.30;2.90;;;;;;;36.60;24.76;98242.55;68003;1274;1016238;-65
2023/07/19 12:48:22;;;;;;;12.10;3.00;;;;;;;36.58;24.57;98243.80;68021;1274;1016391;-64
2023/07/19 12:51:24;;;;;;;10.80;3.10;;;;;;;36.24;23.83;98246.39;67993;1274;1016479;-67
2023/07/19 12:54:26;;;;;;;10.80;3.10;;;;;;;36.28;24.02;98237.34;67986;1274;1016332;-67
2023/07/19 12:57:29;;;;;;;7.20;3.10;;;;;;;35.83;24.81;98233.70;67950;1274;1016174;-64
2023/07/19 13:00:31;;;;;;;13.60;3.40;;;;;;;35.93;24.97;98231.75;67971;1274;1016406;-64
2023/07/19 13:03:35;;;;;;;11.70;3.40;;;;;;;36.02;24.93;98227.15;67992;1274;1016367;-64
2023/07/19 13:06:37;;;;;;;9.20;3.20;;;;;;;35.91;24.94;98222.42;67997;1274;1016377;-64
2023/07/19 13:09:40;;;;;;;11.90;3.40;;;;;;;36.06;24.44;98219.71;68007;1274;1016379;-64
2023/07/19 13:12:42;;;;;;;10.20;3.30;;;;;;;35.95;24.73;98213.38;67965;1274;1016622;-67
2023/07/19 13:15:45;;;;;;;12.00;3.20;;;;;;;36.43;24.86;98208.52;67962;1274;1016390;-67
2023/07/19 13:18:47;;;;;;;11.60;3.10;;;;;;;36.44;24.00;98205.73;67975;1274;1016035;-66
2023/07/19 13:21:50;;;;;;;11.60;3.20;;;;;;;36.49;23.83;98204.69;67967;1274;1016335;-63
2023/07/19 13:24:53;;;;;;;12.60;3.30;;;;;;;36.80;24.45;98204.06;67970;1274;1016053;-63
2023/07/19 13:27:55;;;;;;;17.00;3.70;;;;;;;37.14;24.01;98196.14;67955;1274;1016767;-63
2023/07/19 13:30:59;;;;;;;8.60;3.20;;;;;;;37.14;23.98;98193.63;67970;1274;1016464;-67
2023/07/19 13:34:03;;;;;;;10.80;3.40;;;;;;;36.81;23.57;98197.84;68081;1275;1018964;-66
2023/07/19 13:37:07;;;;;;;16.50;3.50;;;;;;;36.88;23.32;98190.33;68031;1274;1015963;-65
2023/07/19 13:40:10;;;;;;;10.30;3.10;;;;;;;37.04;22.92;98180.90;67958;1274;1016486;-66
2023/07/19 13:43:13;;;;;;;12.10;3.40;;;;;;;36.94;23.07;98171.89;68055;1274;1016041;-63
2023/07/19 13:46:15;;;;;;;10.30;3.20;;;;;;;37.48;23.57;98164.84;67917;1274;1016445;-65
2023/07/19 13:49:17;;;;;;;9.50;3.10;;;;;;;37.84;22.31;98157.27;67938;1274;1018863;-63
2023/07/19 13:52:20;;;;;;;9.30;2.90;;;;;;;37.73;22.63;98161.05;68049;1274;1020082;-64
2023/07/19 13:55:22;;;;;;;10.80;2.90;;;;;;;37.85;22.29;98156.69;67978;1274;1016308;-63